DAL1342 KSMF-KSLC
Flight info
| Callsign | DAL1342 |
|---|---|
| Flight time | 1h 19m |
| Altitude | 39000 |
| Route | SCTWN4 MACUS Q124 SLOWN FLECC YUTES2 |
| Aircraft | A20N/M-SDE2E3FGHIRWXY/LB1 |
Departure
| Time | 2026-05-06 22:30 |
|---|---|
| Airport | Sacramento International Airport (KSMF) |
Arrival
| Time | 2026-05-06 23:49 |
|---|---|
| Airport | Salt Lake City International Airport (KSLC) |
| Time | Latitude | Longitude | Altitude | Speed | Heading |
|---|---|---|---|---|---|
| 2026-05-06 22:15 | 38.69631 | -121.59409 | 37 ft | 0 kts | 179° |
| 2026-05-06 22:21 | 38.69635 | -121.59409 | 36 ft | 3 kts | 179° |
| 2026-05-06 22:22 | 38.69661 | -121.59408 | 35 ft | 4 kts | 189° |
| 2026-05-06 22:22 | 38.69685 | -121.59398 | 37 ft | 4 kts | 218° |
| 2026-05-06 22:22 | 38.69698 | -121.59374 | 37 ft | 3 kts | 269° |
| 2026-05-06 22:22 | 38.69698 | -121.59366 | 37 ft | 0 kts | 271° |
| 2026-05-06 22:25 | 38.69699 | -121.59378 | 37 ft | 4 kts | 270° |
| 2026-05-06 22:25 | 38.69699 | -121.59432 | 37 ft | 8 kts | 270° |
| 2026-05-06 22:26 | 38.69700 | -121.59513 | 38 ft | 10 kts | 270° |
| 2026-05-06 22:26 | 38.69701 | -121.59610 | 38 ft | 12 kts | 270° |
| 2026-05-06 22:26 | 38.69702 | -121.59736 | 37 ft | 16 kts | 271° |
| 2026-05-06 22:26 | 38.69735 | -121.59861 | 37 ft | 16 kts | 341° |
| 2026-05-06 22:27 | 38.69855 | -121.59862 | 36 ft | 18 kts | 360° |
| 2026-05-06 22:27 | 38.69981 | -121.59861 | 38 ft | 19 kts | 0° |
| 2026-05-06 22:27 | 38.70117 | -121.59860 | 36 ft | 20 kts | 1° |
| 2026-05-06 22:27 | 38.70265 | -121.59855 | 38 ft | 22 kts | 1° |
| 2026-05-06 22:28 | 38.70412 | -121.59854 | 39 ft | 21 kts | 0° |
| 2026-05-06 22:28 | 38.70560 | -121.59851 | 38 ft | 22 kts | 2° |
| 2026-05-06 22:28 | 38.70704 | -121.59865 | 38 ft | 19 kts | 321° |
| 2026-05-06 22:28 | 38.70720 | -121.59993 | 38 ft | 9 kts | 270° |
| 2026-05-06 22:29 | 38.70721 | -121.60077 | 37 ft | 10 kts | 264° |
| 2026-05-06 22:29 | 38.70681 | -121.60110 | 38 ft | 0 kts | 180° |
| 2026-05-06 22:29 | 38.70680 | -121.60110 | 38 ft | 1 kts | 180° |
| 2026-05-06 22:29 | 38.70440 | -121.60115 | 40 ft | 70 kts | 181° |
| 2026-05-06 22:30 | 38.69727 | -121.60128 | 34 ft | 133 kts | 181° |
| 2026-05-06 22:30 | 38.68639 | -121.60148 | 112 ft | 171 kts | 180° |
| 2026-05-06 22:30 | 38.67469 | -121.60159 | 727 ft | 164 kts | 181° |
| 2026-05-06 22:30 | 38.66391 | -121.59867 | 1440 ft | 160 kts | 146° |
| 2026-05-06 22:31 | 38.65841 | -121.58584 | 2056 ft | 180 kts | 103° |
| 2026-05-06 22:31 | 38.65573 | -121.56893 | 2514 ft | 205 kts | 102° |
| 2026-05-06 22:31 | 38.65231 | -121.54997 | 2850 ft | 240 kts | 104° |
| 2026-05-06 22:31 | 38.64788 | -121.52835 | 3436 ft | 259 kts | 104° |
| 2026-05-06 22:32 | 38.64296 | -121.50576 | 4277 ft | 266 kts | 104° |
| 2026-05-06 22:32 | 38.63782 | -121.48282 | 5152 ft | 270 kts | 104° |
| 2026-05-06 22:32 | 38.63264 | -121.45955 | 5991 ft | 274 kts | 101° |
| 2026-05-06 22:32 | 38.63087 | -121.43533 | 6851 ft | 274 kts | 87° |
| 2026-05-06 22:33 | 38.63134 | -121.41081 | 7681 ft | 277 kts | 85° |
| 2026-05-06 22:33 | 38.63215 | -121.38596 | 8563 ft | 281 kts | 85° |
| 2026-05-06 22:33 | 38.63295 | -121.36080 | 9466 ft | 285 kts | 85° |
| 2026-05-06 22:33 | 38.63371 | -121.33526 | 10335 ft | 292 kts | 85° |
| 2026-05-06 22:34 | 38.63449 | -121.30829 | 10770 ft | 315 kts | 85° |
| 2026-05-06 22:34 | 38.63528 | -121.27935 | 11170 ft | 334 kts | 86° |
| 2026-05-06 22:34 | 38.63606 | -121.24918 | 11836 ft | 343 kts | 86° |
| 2026-05-06 22:34 | 38.63682 | -121.21847 | 12673 ft | 346 kts | 86° |
| 2026-05-06 22:35 | 38.63758 | -121.18755 | 13549 ft | 349 kts | 87° |
| 2026-05-06 22:35 | 38.63834 | -121.15638 | 14325 ft | 353 kts | 87° |
| 2026-05-06 22:35 | 38.63910 | -121.12478 | 15035 ft | 358 kts | 87° |
| 2026-05-06 22:35 | 38.63986 | -121.09322 | 15738 ft | 362 kts | 86° |
| 2026-05-06 22:36 | 38.64063 | -121.06084 | 16473 ft | 366 kts | 86° |
| 2026-05-06 22:36 | 38.64140 | -121.02810 | 17228 ft | 370 kts | 86° |
| 2026-05-06 22:36 | 38.64217 | -120.99496 | 17979 ft | 374 kts | 86° |
| 2026-05-06 22:36 | 38.64294 | -120.96153 | 18659 ft | 378 kts | 86° |
| 2026-05-06 22:37 | 38.64371 | -120.92760 | 19249 ft | 384 kts | 86° |
| 2026-05-06 22:37 | 38.64448 | -120.89325 | 19852 ft | 388 kts | 86° |
| 2026-05-06 22:37 | 38.64525 | -120.85852 | 20464 ft | 393 kts | 86° |
| 2026-05-06 22:37 | 38.64601 | -120.82340 | 21076 ft | 397 kts | 86° |
| 2026-05-06 22:38 | 38.64680 | -120.78791 | 21677 ft | 401 kts | 85° |
| 2026-05-06 22:38 | 38.64909 | -120.75263 | 22245 ft | 403 kts | 79° |
| 2026-05-06 22:38 | 38.65558 | -120.71769 | 22820 ft | 404 kts | 69° |
| 2026-05-06 22:38 | 38.66687 | -120.68465 | 23374 ft | 406 kts | 59° |
| 2026-05-06 22:39 | 38.68264 | -120.65457 | 23934 ft | 408 kts | 50° |
| 2026-05-06 22:39 | 38.70082 | -120.62640 | 24404 ft | 411 kts | 48° |
| 2026-05-06 22:39 | 38.71928 | -120.59888 | 24892 ft | 414 kts | 47° |
| 2026-05-06 22:39 | 38.73814 | -120.57080 | 25379 ft | 417 kts | 47° |
| 2026-05-06 22:40 | 38.75710 | -120.54247 | 25846 ft | 420 kts | 47° |
| 2026-05-06 22:40 | 38.77616 | -120.51388 | 26283 ft | 423 kts | 48° |
| 2026-05-06 22:40 | 38.79534 | -120.48504 | 26755 ft | 425 kts | 48° |
| 2026-05-06 22:40 | 38.81456 | -120.45608 | 27205 ft | 428 kts | 48° |
| 2026-05-06 22:41 | 38.85332 | -120.39754 | 28053 ft | 433 kts | 47° |
| 2026-05-06 22:41 | 38.87286 | -120.36798 | 28481 ft | 435 kts | 47° |
| 2026-05-06 22:41 | 38.89247 | -120.33829 | 28882 ft | 438 kts | 47° |
| 2026-05-06 22:42 | 38.91222 | -120.30836 | 29254 ft | 441 kts | 47° |
| 2026-05-06 22:42 | 38.93182 | -120.27862 | 29657 ft | 443 kts | 47° |
| 2026-05-06 22:42 | 38.95179 | -120.24830 | 30035 ft | 446 kts | 47° |
| 2026-05-06 22:42 | 38.97183 | -120.21784 | 30476 ft | 446 kts | 47° |
| 2026-05-06 22:43 | 38.99179 | -120.18745 | 30975 ft | 444 kts | 47° |
| 2026-05-06 22:43 | 39.01165 | -120.15720 | 31472 ft | 442 kts | 47° |
| 2026-05-06 22:43 | 39.03143 | -120.12704 | 31940 ft | 441 kts | 47° |
| 2026-05-06 22:43 | 39.05123 | -120.09682 | 32418 ft | 439 kts | 47° |
| 2026-05-06 22:44 | 39.07090 | -120.06677 | 32898 ft | 438 kts | 47° |
| 2026-05-06 22:44 | 39.09048 | -120.03684 | 33304 ft | 436 kts | 47° |
| 2026-05-06 22:44 | 39.11002 | -120.00693 | 33718 ft | 435 kts | 47° |
| 2026-05-06 22:44 | 39.12924 | -119.97749 | 34071 ft | 435 kts | 47° |
| 2026-05-06 22:45 | 39.14865 | -119.94774 | 34428 ft | 434 kts | 47° |
| 2026-05-06 22:45 | 39.16804 | -119.91798 | 34758 ft | 433 kts | 47° |
| 2026-05-06 22:45 | 39.18739 | -119.88826 | 35048 ft | 433 kts | 47° |
| 2026-05-06 22:45 | 39.20677 | -119.85847 | 35329 ft | 434 kts | 47° |
| 2026-05-06 22:46 | 39.22613 | -119.82868 | 35643 ft | 433 kts | 47° |
| 2026-05-06 22:46 | 39.24543 | -119.79894 | 35995 ft | 431 kts | 47° |
| 2026-05-06 22:46 | 39.26470 | -119.76922 | 36306 ft | 430 kts | 47° |
| 2026-05-06 22:46 | 39.28390 | -119.73959 | 36581 ft | 430 kts | 47° |
| 2026-05-06 22:47 | 39.30309 | -119.70995 | 36833 ft | 430 kts | 47° |
| 2026-05-06 22:47 | 39.32225 | -119.68032 | 37093 ft | 430 kts | 47° |
| 2026-05-06 22:47 | 39.34136 | -119.65074 | 37341 ft | 429 kts | 47° |
| 2026-05-06 22:47 | 39.36049 | -119.62111 | 37579 ft | 429 kts | 47° |
| 2026-05-06 22:48 | 39.37957 | -119.59153 | 37827 ft | 428 kts | 47° |
| 2026-05-06 22:48 | 39.39866 | -119.56190 | 38054 ft | 428 kts | 46° |
| 2026-05-06 22:48 | 39.41770 | -119.53232 | 38306 ft | 428 kts | 46° |
| 2026-05-06 22:48 | 39.43671 | -119.50276 | 38551 ft | 427 kts | 46° |
| 2026-05-06 22:49 | 39.45547 | -119.47356 | 38769 ft | 427 kts | 46° |
| 2026-05-06 22:49 | 39.47452 | -119.44390 | 38940 ft | 427 kts | 46° |
| 2026-05-06 22:49 | 39.49347 | -119.41435 | 39066 ft | 428 kts | 46° |
| 2026-05-06 22:50 | 39.53150 | -119.35496 | 39067 ft | 428 kts | 46° |
| 2026-05-06 22:50 | 39.56960 | -119.29535 | 39050 ft | 429 kts | 46° |
| 2026-05-06 22:51 | 39.60767 | -119.23568 | 39051 ft | 429 kts | 46° |
| 2026-05-06 22:51 | 39.64540 | -119.17642 | 39043 ft | 428 kts | 46° |
| 2026-05-06 22:52 | 39.68328 | -119.11681 | 39043 ft | 428 kts | 46° |
| 2026-05-06 22:52 | 39.72116 | -119.05710 | 39044 ft | 428 kts | 46° |
| 2026-05-06 22:53 | 39.75903 | -118.99729 | 39042 ft | 428 kts | 46° |
| 2026-05-06 22:53 | 39.79689 | -118.93738 | 39050 ft | 428 kts | 46° |
| 2026-05-06 22:54 | 39.83447 | -118.87781 | 39057 ft | 428 kts | 46° |
| 2026-05-06 22:54 | 39.87211 | -118.81774 | 39066 ft | 429 kts | 48° |
| 2026-05-06 22:55 | 39.90412 | -118.75127 | 39101 ft | 435 kts | 56° |
| 2026-05-06 22:55 | 39.93269 | -118.68163 | 39110 ft | 436 kts | 58° |
| 2026-05-06 22:56 | 39.96058 | -118.61181 | 39128 ft | 436 kts | 58° |
| 2026-05-06 22:56 | 39.98876 | -118.54174 | 39140 ft | 436 kts | 57° |
| 2026-05-06 22:57 | 40.01710 | -118.47169 | 39140 ft | 436 kts | 57° |
| 2026-05-06 22:57 | 40.04551 | -118.40154 | 39128 ft | 436 kts | 57° |
| 2026-05-06 22:58 | 40.07368 | -118.33178 | 39115 ft | 437 kts | 57° |
| 2026-05-06 22:58 | 40.10201 | -118.26147 | 39062 ft | 437 kts | 57° |
| 2026-05-06 22:59 | 40.13029 | -118.19109 | 39065 ft | 437 kts | 58° |
| 2026-05-06 22:59 | 40.15856 | -118.12057 | 39061 ft | 438 kts | 58° |
| 2026-05-06 23:00 | 40.18681 | -118.04993 | 39077 ft | 438 kts | 58° |
| 2026-05-06 23:00 | 40.20952 | -117.97543 | 39073 ft | 444 kts | 66° |
| 2026-05-06 23:01 | 40.22813 | -117.89888 | 39070 ft | 445 kts | 68° |
| 2026-05-06 23:01 | 40.24610 | -117.82114 | 39071 ft | 445 kts | 68° |
| 2026-05-06 23:02 | 40.26396 | -117.74346 | 39068 ft | 445 kts | 68° |
| 2026-05-06 23:02 | 40.28177 | -117.66633 | 39079 ft | 445 kts | 68° |
| 2026-05-06 23:03 | 40.29969 | -117.58876 | 39081 ft | 445 kts | 68° |
| 2026-05-06 23:03 | 40.31759 | -117.51106 | 39082 ft | 445 kts | 68° |
| 2026-05-06 23:04 | 40.33545 | -117.43325 | 39084 ft | 445 kts | 68° |
| 2026-05-06 23:04 | 40.35325 | -117.35543 | 39083 ft | 445 kts | 68° |
| 2026-05-06 23:05 | 40.37086 | -117.27814 | 39087 ft | 445 kts | 68° |
| 2026-05-06 23:05 | 40.38856 | -117.20023 | 39088 ft | 445 kts | 68° |
| 2026-05-06 23:06 | 40.40322 | -117.13551 | 39115 ft | 445 kts | 68° |
| 2026-05-06 23:06 | 40.42082 | -117.05747 | 39126 ft | 445 kts | 68° |
| 2026-05-06 23:07 | 40.43835 | -116.97950 | 39135 ft | 445 kts | 68° |
| 2026-05-06 23:07 | 40.45588 | -116.90129 | 39149 ft | 445 kts | 68° |
| 2026-05-06 23:08 | 40.47320 | -116.82369 | 39153 ft | 445 kts | 68° |
| 2026-05-06 23:08 | 40.49057 | -116.74562 | 39156 ft | 445 kts | 68° |
| 2026-05-06 23:09 | 40.50789 | -116.66752 | 39141 ft | 445 kts | 68° |
| 2026-05-06 23:09 | 40.52518 | -116.58929 | 39121 ft | 445 kts | 69° |
| 2026-05-06 23:10 | 40.54240 | -116.51104 | 39107 ft | 445 kts | 68° |
| 2026-05-06 23:10 | 40.55958 | -116.43273 | 39092 ft | 445 kts | 69° |
| 2026-05-06 23:11 | 40.57091 | -116.35258 | 39085 ft | 451 kts | 77° |
| 2026-05-06 23:11 | 40.57902 | -116.27071 | 39087 ft | 451 kts | 77° |
| 2026-05-06 23:12 | 40.58686 | -116.18859 | 39088 ft | 451 kts | 77° |
| 2026-05-06 23:12 | 40.59457 | -116.10665 | 39090 ft | 451 kts | 77° |
| 2026-05-06 23:13 | 40.60219 | -116.02510 | 39088 ft | 451 kts | 78° |
| 2026-05-06 23:13 | 40.60979 | -115.94305 | 39106 ft | 451 kts | 77° |
| 2026-05-06 23:14 | 40.61732 | -115.86109 | 39093 ft | 450 kts | 77° |
| 2026-05-06 23:14 | 40.62472 | -115.77987 | 39092 ft | 449 kts | 77° |
| 2026-05-06 23:15 | 40.63210 | -115.69830 | 39099 ft | 449 kts | 77° |
| 2026-05-06 23:15 | 40.63944 | -115.61659 | 39110 ft | 449 kts | 77° |
| 2026-05-06 23:16 | 40.64671 | -115.53485 | 39108 ft | 449 kts | 77° |
| 2026-05-06 23:16 | 40.65395 | -115.45305 | 39083 ft | 449 kts | 77° |
| 2026-05-06 23:17 | 40.66112 | -115.37125 | 39122 ft | 449 kts | 77° |
| 2026-05-06 23:17 | 40.66827 | -115.28909 | 39101 ft | 451 kts | 77° |
| 2026-05-06 23:18 | 40.67532 | -115.20702 | 39108 ft | 450 kts | 77° |
| 2026-05-06 23:18 | 40.68225 | -115.12565 | 39105 ft | 450 kts | 77° |
| 2026-05-06 23:19 | 40.68919 | -115.04365 | 39103 ft | 450 kts | 78° |
| 2026-05-06 23:19 | 40.69608 | -114.96161 | 39103 ft | 451 kts | 78° |
| 2026-05-06 23:20 | 40.70244 | -114.87895 | 39102 ft | 455 kts | 81° |
| 2026-05-06 23:20 | 40.70482 | -114.79542 | 39102 ft | 456 kts | 83° |
| 2026-05-06 23:21 | 40.70674 | -114.71186 | 39104 ft | 456 kts | 82° |
| 2026-05-06 23:21 | 40.70869 | -114.62862 | 39104 ft | 456 kts | 82° |
| 2026-05-06 23:22 | 40.71062 | -114.54512 | 39102 ft | 455 kts | 82° |
| 2026-05-06 23:22 | 40.71251 | -114.46169 | 39102 ft | 455 kts | 82° |
| 2026-05-06 23:23 | 40.71435 | -114.37838 | 39119 ft | 455 kts | 82° |
| 2026-05-06 23:23 | 40.71612 | -114.29497 | 39128 ft | 455 kts | 82° |
| 2026-05-06 23:24 | 40.71782 | -114.21208 | 39143 ft | 456 kts | 82° |
| 2026-05-06 23:24 | 40.71948 | -114.12849 | 39147 ft | 455 kts | 82° |
| 2026-05-06 23:25 | 40.72107 | -114.04505 | 38783 ft | 453 kts | 82° |
| 2026-05-06 23:25 | 40.72187 | -114.00324 | 37868 ft | 459 kts | 82° |
| 2026-05-06 23:25 | 40.72266 | -113.96101 | 37115 ft | 462 kts | 82° |
| 2026-05-06 23:25 | 40.72342 | -113.91860 | 36390 ft | 464 kts | 82° |
| 2026-05-06 23:26 | 40.72417 | -113.87585 | 35595 ft | 468 kts | 83° |
| 2026-05-06 23:26 | 40.72492 | -113.83272 | 34747 ft | 473 kts | 83° |
| 2026-05-06 23:26 | 40.72565 | -113.78973 | 33865 ft | 479 kts | 83° |
| 2026-05-06 23:26 | 40.72618 | -113.74588 | 33206 ft | 477 kts | 84° |
| 2026-05-06 23:27 | 40.72624 | -113.70207 | 32483 ft | 477 kts | 84° |
| 2026-05-06 23:27 | 40.72617 | -113.65844 | 31797 ft | 475 kts | 85° |
| 2026-05-06 23:27 | 40.72608 | -113.61503 | 31150 ft | 472 kts | 85° |
| 2026-05-06 23:27 | 40.72599 | -113.57175 | 30435 ft | 472 kts | 85° |
| 2026-05-06 23:28 | 40.72590 | -113.52850 | 29557 ft | 473 kts | 85° |
| 2026-05-06 23:28 | 40.72581 | -113.48502 | 28584 ft | 475 kts | 85° |
| 2026-05-06 23:28 | 40.72570 | -113.44141 | 27635 ft | 476 kts | 85° |
| 2026-05-06 23:28 | 40.72557 | -113.39773 | 26854 ft | 475 kts | 85° |
| 2026-05-06 23:29 | 40.72541 | -113.35439 | 26182 ft | 470 kts | 85° |
| 2026-05-06 23:29 | 40.72524 | -113.31200 | 25522 ft | 466 kts | 85° |
| 2026-05-06 23:29 | 40.72506 | -113.26949 | 24949 ft | 460 kts | 85° |
| 2026-05-06 23:29 | 40.72485 | -113.22784 | 24540 ft | 450 kts | 85° |
| 2026-05-06 23:30 | 40.72466 | -113.18664 | 23769 ft | 450 kts | 85° |
| 2026-05-06 23:30 | 40.72447 | -113.14538 | 22941 ft | 448 kts | 85° |
| 2026-05-06 23:30 | 40.72425 | -113.10448 | 22251 ft | 444 kts | 85° |
| 2026-05-06 23:30 | 40.72401 | -113.06396 | 21543 ft | 439 kts | 85° |
| 2026-05-06 23:31 | 40.72376 | -113.02387 | 20813 ft | 436 kts | 85° |
| 2026-05-06 23:31 | 40.72350 | -112.98410 | 20176 ft | 431 kts | 86° |
| 2026-05-06 23:31 | 40.72322 | -112.94478 | 19579 ft | 425 kts | 86° |
| 2026-05-06 23:31 | 40.72294 | -112.90592 | 19032 ft | 419 kts | 86° |
| 2026-05-06 23:32 | 40.72264 | -112.86814 | 18769 ft | 406 kts | 86° |
| 2026-05-06 23:32 | 40.72231 | -112.83156 | 18549 ft | 392 kts | 86° |
| 2026-05-06 23:32 | 40.72197 | -112.79620 | 18327 ft | 379 kts | 86° |
| 2026-05-06 23:32 | 40.72164 | -112.76204 | 18112 ft | 367 kts | 85° |
| 2026-05-06 23:33 | 40.72132 | -112.72889 | 17892 ft | 355 kts | 85° |
| 2026-05-06 23:33 | 40.72100 | -112.69727 | 17710 ft | 344 kts | 85° |
| 2026-05-06 23:33 | 40.72069 | -112.66624 | 17490 ft | 334 kts | 85° |
| 2026-05-06 23:33 | 40.72039 | -112.63569 | 17070 ft | 331 kts | 85° |
| 2026-05-06 23:34 | 40.72014 | -112.60539 | 16601 ft | 330 kts | 85° |
| 2026-05-06 23:34 | 40.71992 | -112.57514 | 16178 ft | 328 kts | 85° |
| 2026-05-06 23:34 | 40.71969 | -112.54515 | 15746 ft | 326 kts | 86° |
| 2026-05-06 23:34 | 40.71886 | -112.51528 | 15295 ft | 326 kts | 88° |
| 2026-05-06 23:35 | 40.71754 | -112.48552 | 14937 ft | 324 kts | 89° |
| 2026-05-06 23:35 | 40.71613 | -112.45594 | 14518 ft | 323 kts | 89° |
| 2026-05-06 23:35 | 40.71472 | -112.42686 | 14117 ft | 321 kts | 89° |
| 2026-05-06 23:35 | 40.71330 | -112.39753 | 13693 ft | 319 kts | 89° |
| 2026-05-06 23:36 | 40.71188 | -112.36826 | 13262 ft | 317 kts | 89° |
| 2026-05-06 23:36 | 40.71047 | -112.33936 | 12847 ft | 314 kts | 89° |
| 2026-05-06 23:36 | 40.70907 | -112.31078 | 12448 ft | 311 kts | 89° |
| 2026-05-06 23:36 | 40.70768 | -112.28256 | 12150 ft | 305 kts | 89° |
| 2026-05-06 23:37 | 40.70631 | -112.25478 | 11924 ft | 303 kts | 88° |
| 2026-05-06 23:37 | 40.70495 | -112.22712 | 11701 ft | 302 kts | 89° |
| 2026-05-06 23:37 | 40.70361 | -112.19989 | 11454 ft | 300 kts | 89° |
| 2026-05-06 23:37 | 40.70223 | -112.17220 | 11182 ft | 311 kts | 89° |
| 2026-05-06 23:38 | 40.70058 | -112.14227 | 11011 ft | 341 kts | 94° |
| 2026-05-06 23:38 | 40.69292 | -112.11202 | 11015 ft | 357 kts | 117° |
| 2026-05-06 23:38 | 40.67600 | -112.08740 | 10864 ft | 371 kts | 142° |
| 2026-05-06 23:38 | 40.65260 | -112.07324 | 10624 ft | 372 kts | 167° |
| 2026-05-06 23:39 | 40.62697 | -112.07026 | 10390 ft | 370 kts | 181° |
| 2026-05-06 23:39 | 40.60155 | -112.07257 | 10168 ft | 369 kts | 186° |
| 2026-05-06 23:39 | 40.57578 | -112.07581 | 9896 ft | 364 kts | 181° |
| 2026-05-06 23:39 | 40.55167 | -112.07142 | 9629 ft | 349 kts | 161° |
| 2026-05-06 23:40 | 40.53123 | -112.05612 | 9374 ft | 332 kts | 134° |
| 2026-05-06 23:40 | 40.51693 | -112.03323 | 9130 ft | 317 kts | 127° |
| 2026-05-06 23:40 | 40.50064 | -112.01471 | 8997 ft | 305 kts | 151° |
| 2026-05-06 23:40 | 40.48102 | -112.00669 | 8991 ft | 288 kts | 171° |
| 2026-05-06 23:41 | 40.46168 | -112.00380 | 8995 ft | 272 kts | 175° |
| 2026-05-06 23:41 | 40.44328 | -112.00190 | 8978 ft | 260 kts | 176° |
| 2026-05-06 23:41 | 40.42514 | -111.99996 | 8987 ft | 260 kts | 169° |
| 2026-05-06 23:41 | 40.40887 | -111.99062 | 8993 ft | 254 kts | 138° |
| 2026-05-06 23:42 | 40.39866 | -111.97288 | 8983 ft | 248 kts | 107° |
| 2026-05-06 23:42 | 40.39737 | -111.95120 | 8969 ft | 234 kts | 69° |
| 2026-05-06 23:42 | 40.40604 | -111.93445 | 8839 ft | 219 kts | 29° |
| 2026-05-06 23:42 | 40.42034 | -111.92995 | 8825 ft | 216 kts | 355° |
| 2026-05-06 23:43 | 40.43541 | -111.93282 | 8847 ft | 221 kts | 351° |
| 2026-05-06 23:43 | 40.45058 | -111.93616 | 8832 ft | 220 kts | 347° |
| 2026-05-06 23:43 | 40.46553 | -111.93953 | 8601 ft | 217 kts | 356° |
| 2026-05-06 23:43 | 40.48056 | -111.94078 | 8177 ft | 217 kts | 355° |
| 2026-05-06 23:44 | 40.49589 | -111.94203 | 7670 ft | 224 kts | 355° |
| 2026-05-06 23:44 | 40.51155 | -111.94345 | 7287 ft | 225 kts | 354° |
| 2026-05-06 23:44 | 40.52694 | -111.94500 | 6986 ft | 224 kts | 355° |
| 2026-05-06 23:44 | 40.54244 | -111.94665 | 6696 ft | 222 kts | 354° |
| 2026-05-06 23:45 | 40.55772 | -111.94832 | 6415 ft | 220 kts | 353° |
| 2026-05-06 23:45 | 40.57310 | -111.95006 | 6333 ft | 224 kts | 354° |
| 2026-05-06 23:45 | 40.58882 | -111.95175 | 6494 ft | 227 kts | 353° |
| 2026-05-06 23:45 | 40.60472 | -111.95347 | 6497 ft | 228 kts | 355° |
| 2026-05-06 23:46 | 40.62047 | -111.95528 | 6513 ft | 226 kts | 353° |
| 2026-05-06 23:46 | 40.63601 | -111.95707 | 6502 ft | 224 kts | 354° |
| 2026-05-06 23:46 | 40.65155 | -111.95886 | 6452 ft | 222 kts | 353° |
| 2026-05-06 23:46 | 40.66677 | -111.96062 | 6365 ft | 219 kts | 353° |
| 2026-05-06 23:47 | 40.68235 | -111.96243 | 6289 ft | 232 kts | 353° |
| 2026-05-06 23:47 | 40.69808 | -111.96424 | 6047 ft | 218 kts | 354° |
| 2026-05-06 23:47 | 40.71302 | -111.96597 | 5562 ft | 213 kts | 354° |
| 2026-05-06 23:47 | 40.72705 | -111.96760 | 5245 ft | 196 kts | 353° |
| 2026-05-06 23:48 | 40.74018 | -111.96920 | 4933 ft | 181 kts | 354° |
| 2026-05-06 23:48 | 40.75220 | -111.97047 | 4701 ft | 166 kts | 356° |
| 2026-05-06 23:48 | 40.76315 | -111.97176 | 4512 ft | 150 kts | 353° |
| 2026-05-06 23:48 | 40.77319 | -111.97293 | 4346 ft | 141 kts | 353° |
| 2026-05-06 23:49 | 40.78282 | -111.97411 | 4229 ft | 125 kts | 355° |
| 2026-05-06 23:49 | 40.78889 | -111.97477 | 4236 ft | 59 kts | 355° |
| 2026-05-06 23:49 | 40.79186 | -111.97577 | 4234 ft | 29 kts | 327° |
| 2026-05-06 23:49 | 40.79214 | -111.97686 | 4232 ft | 4 kts | 267° |
| 2026-05-06 23:50 | 40.79210 | -111.97717 | 4232 ft | 2 kts | 239° |
| 2026-05-06 23:50 | 40.79018 | -111.97710 | 4237 ft | 29 kts | 176° |
| 2026-05-06 23:50 | 40.78930 | -111.97702 | 4238 ft | 11 kts | 175° |
| 2026-05-06 23:51 | 40.78845 | -111.97691 | 4236 ft | 13 kts | 174° |
| 2026-05-06 23:51 | 40.78749 | -111.97680 | 4235 ft | 14 kts | 175° |
| 2026-05-06 23:51 | 40.78652 | -111.97669 | 4236 ft | 14 kts | 175° |
| 2026-05-06 23:51 | 40.78547 | -111.97657 | 4233 ft | 17 kts | 175° |
| 2026-05-06 23:52 | 40.78419 | -111.97642 | 4229 ft | 20 kts | 175° |
| 2026-05-06 23:52 | 40.78279 | -111.97627 | 4229 ft | 20 kts | 175° |
| 2026-05-06 23:52 | 40.78230 | -111.97621 | 4229 ft | 3 kts | 174° |
| 2026-05-06 23:52 | 40.78205 | -111.97618 | 4229 ft | 5 kts | 173° |
| 2026-05-06 23:53 | 40.78151 | -111.97609 | 4228 ft | 11 kts | 173° |
| 2026-05-06 23:53 | 40.78060 | -111.97599 | 4242 ft | 15 kts | 176° |
| 2026-05-06 23:53 | 40.77947 | -111.97586 | 4259 ft | 16 kts | 174° |
| 2026-05-06 23:53 | 40.77875 | -111.97644 | 4262 ft | 13 kts | 275° |
| 2026-05-06 23:54 | 40.77944 | -111.97679 | 4259 ft | 13 kts | 4° |
| 2026-05-06 23:54 | 40.78050 | -111.97689 | 4256 ft | 17 kts | 355° |
| 2026-05-06 23:54 | 40.78170 | -111.97703 | 4228 ft | 17 kts | 355° |
| 2026-05-06 23:54 | 40.78288 | -111.97723 | 4229 ft | 18 kts | 354° |
| 2026-05-06 23:55 | 40.78417 | -111.97738 | 4229 ft | 19 kts | 355° |
| 2026-05-06 23:55 | 40.78510 | -111.97795 | 4232 ft | 14 kts | 269° |
| 2026-05-06 23:55 | 40.78498 | -111.97914 | 4233 ft | 12 kts | 265° |
| 2026-05-06 23:55 | 40.78492 | -111.98014 | 4235 ft | 10 kts | 265° |
| 2026-05-06 23:56 | 40.78488 | -111.98081 | 4235 ft | 11 kts | 265° |
| 2026-05-06 23:56 | 40.78505 | -111.98150 | 4234 ft | 7 kts | 0° |
| 2026-05-06 23:56 | 40.78537 | -111.98151 | 4234 ft | 2 kts | 354° |
| 2026-05-06 23:56 | 40.78539 | -111.98151 | 4234 ft | 0 kts | 355° |